Observations for Trim Market St
| Time | AQI | Temp °C | Hum % | Pres Pa | CO μg/m³ | H₂S μg/m³ | NO μg/m³ | NO₂ μg/m³ | O₃ μg/m³ | SO₂ μg/m³ | PM1 μg/m³ | PM2.5 μg/m³ | PM10 μg/m³ |
|---|---|---|---|---|---|---|---|---|---|---|---|---|---|
| Wednesday 12 August 2026 | |||||||||||||
| 02:10 | 2 | 19.8 | 62 | 57,681 | 0.01 | 0 | 1.24 | 20.24 | 59.22 | 0 | 1.43 | 3.91 | 7.53 |
| 02:09 | 2 | 19.8 | 62 | 57,687 | 0 | 0 | 1.23 | 16.68 | 59.61 | 0 | 1.43 | 3.92 | 6.86 |
| 02:08 | 2 | 19.8 | 62 | 57,692 | 0.01 | 0 | 1.23 | 29.1 | 49.56 | 0 | 0.71 | 2.92 | 4.84 |
| 02:07 | 2 | 19.8 | 62 | 57,697 | 0 | 0 | 1.23 | 15.5 | 62.83 | 0 | 1.43 | 3.43 | 4.83 |
| 02:06 | 2 | 19.8 | 62 | 57,698 | 0.01 | 0 | 1.23 | 19.95 | 58.42 | 0 | 1.43 | 3.43 | 6.18 |
| 02:05 | 2 | 19.9 | 62 | 57,703 | 0 | 0 | 1.23 | 15.76 | 62.76 | 0 | 2.14 | 3.43 | 5.51 |
| 02:04 | 2 | 19.9 | 62 | 57,706 | 0 | 0 | 1.23 | 21.34 | 58.06 | 0 | 1.43 | 3.43 | 4.83 |
| 02:03 | 2 | 19.9 | 62 | 57,711 | 0 | 0 | 1.23 | 24.76 | 58.03 | 0 | 1.43 | 3.44 | 6.18 |
| 02:02 | 2 | 19.9 | 62 | 57,719 | 0 | 0 | 1.23 | 14.17 | 58.41 | 0 | 1.43 | 3.94 | 5.5 |
| 02:01 | 2 | 19.9 | 62 | 57,728 | 0 | 0 | 1.23 | 28.14 | 59.17 | 0 | 2.14 | 3.94 | 6.18 |
| 02:00 | 2 | 19.9 | 62 | 57,737 | 0 | 0 | 1.24 | 24.75 | 56.62 | 0 | 2.14 | 3.95 | 5.5 |
| 01:59 | 2 | 19.9 | 62 | 57,744 | 0 | 0 | 1.23 | 17.56 | 56 | 0 | 2.14 | 3.94 | 6.18 |
| 01:58 | 2 | 19.9 | 62 | 57,748 | 0 | 0 | 1.23 | 14.2 | 64.12 | 0 | 2.14 | 3.95 | 5.5 |
| 01:57 | 2 | 19.9 | 62 | 57,751 | 0 | 0 | 1.23 | 20.72 | 59.3 | 0 | 2.14 | 3.95 | 5.5 |
| 01:53 | 2 | 20 | 61 | 57,763 | 0 | 0 | 1.23 | 28.41 | 59.41 | 0 | 1.43 | 3.96 | 5.49 |
| 01:52 | 2 | 20 | 61 | 57,768 | 0 | 0 | 1.22 | 14.03 | 66.05 | 0 | 1.43 | 3.97 | 5.49 |
| 01:50 | 2 | 20 | 61 | 57,778 | 0 | 0 | 1.22 | 12.5 | 64.91 | 0 | 1.43 | 3.47 | 5.49 |
| 01:49 | 2 | 20 | 61 | 57,780 | 0 | 0 | 1.23 | 20.67 | 58.39 | 0 | 1.43 | 3.98 | 5.49 |
| 01:39 | 2 | 20.1 | 60 | 57,819 | 0 | 0 | 1.22 | 30.8 | 55.28 | 0 | 1.43 | 3.01 | 4.11 |
| 01:37 | 2 | 20.2 | 60 | 57,825 | 0 | 0 | 1.23 | 18.05 | 58.49 | 0 | 1.43 | 4.01 | 6.84 |